Station: Clare  

  Atmospheric Gas Attenuation - ITU Rec 676-11   ----------------- dB/100km -----------------
Date Time Temp RH % AH g/m3 Dew Point Wind Direction Speed kph Gust kph Barometer mB Rainfall Since 9am 24GHz 47GHz 76GHz 122GHz 134GHz 241GHz
03/09 12:30 13.2 82 9.42 10.2 11 17 1019.9 0 21.4 27.7 43.8 115.0 110.8 381.9
03/09 12:20 12.6 84 9.29 10 15 24 1020 0 21.1 27.7 43.6 114.4 109.9 378.6
03/09 12:10 12.5 84 9.24 9.9 15 22 1020.1 0 21.0 27.6 43.4 114.0 109.4 376.7
03/09 12:00 13.2 80 9.19 9.8 13 22 1020 0 20.9 27.3 42.8 112.4 107.7 370.9
03/09 11:50 12.9 80 9.02 9.5 15 24 1020.1 0 20.5 27.1 42.3 111.0 105.8 364.2
03/09 11:40 13.6 78 9.18 9.8 15 20 1020.2 0 20.8 27.2 42.6 111.8 107.0 368.6
03/09 11:30 12.6 80 8.85 9.2 15 26 1020.2 0 20.2 26.9 41.8 109.5 103.9 357.5
03/09 11:20 12.7 80 8.91 9.3 15 22 1020.3 0 20.3 27.0 42.0 110.1 104.6 359.9
03/09 11:10 11.8 88 9.26 9.9 13 20 1020.3 0 21.1 27.9 43.9 115.3 110.7 381.1
03/09 11:00 11.5 88 9.09 9.6 15 30 1020.1 0 20.7 27.7 43.3 113.8 108.7 374.2
03/09 10:50 11.5 88 9.09 9.6 15 28 1020.1 0 20.7 27.7 43.3 113.8 108.7 374.2
03/09 10:40 11.4 88 9.03 9.5 19 32 1020.1 0 20.6 27.6 43.1 113.3 108.0 371.8
03/09 10:30 11.4 88 9.03 9.5 17 30 1020 0 20.6 27.6 43.1 113.2 108.0 371.7
03/09 10:20 11.2 90 9.12 9.6 13 26 1020.1 0 20.8 27.8 43.6 114.6 109.6 377.1
03/09 10:10 11.1 90 9.07 9.5 13 28 1020 0 20.7 27.8 43.5 114.1 109.0 375.1
03/09 10:00 10.7 91 8.94 9.3 13 24 1019.9 0 20.5 27.7 43.1 113.2 107.7 370.7
03/09 09:50 10.8 92 9.1 9.6 13 24 1020 0 20.8 27.9 43.8 114.9 109.9 378.1
03/09 09:40 10.6 92 8.98 9.4 13 20 1020.1 0 20.6 27.8 43.4 113.9 108.5 373.2
03/09 09:30 10.5 91 8.83 9.1 15 22 1019.9 0 20.2 27.5 42.8 112.3 106.5 366.2
03/09 09:20 10.4 91 8.77 9 15 24 1019.9 0 20.1 27.5 42.6 111.7 105.8 363.8
03/09 09:10 10.4 91 8.77 9 13 19 1019.8 0 20.1 27.5 42.6 111.7 105.8 363.7
03/09 09:00 10.2 91 8.66 8.8 15 22 1019.5 0 19.9 27.3 42.2 110.7 104.5 359.2
03/09 08:50 10.1 90 8.51 8.5 13 22 1019.6 0 19.6 27.1 41.6 109.2 102.5 352.4
03/09 08:40 10.1 90 8.51 8.5 15 28 1019.6 0 19.6 27.1 41.6 109.2 102.5 352.4
03/09 08:30 10.1 90 8.51 8.5 17 26 1019.3 0 19.6 27.1 41.6 109.2 102.5 352.3
03/09 08:20 9.9 89 8.31 8.2 15 24 1019.3 0 19.1 26.8 40.9 107.2 100.0 343.5
03/09 08:10 9.7 89 8.21 8 15 20 1019.2 0 18.9 26.7 40.5 106.3 98.9 339.5
03/09 08:00 9.6 89 8.16 7.9 17 28 1018.8 0 18.8 26.6 40.4 105.9 98.3 337.4
03/09 07:50 9.4 88 7.96 7.5 17 32 1018.9 0 18.4 26.3 39.6 103.9 95.8 328.6
03/09 07:40 9.4 89 8.05 7.7 15 24 1018.8 0 18.6 26.5 40.0 104.9 97.0 332.9
03/09 07:30 9.3 88 7.91 7.4 17 24 1018.4 0 18.3 26.3 39.5 103.4 95.2 326.5
03/09 07:20 9.3 87 7.82 7.3 15 26 1018.3 0 18.1 26.1 39.1 102.4 93.9 322.1
03/09 07:10 9.4 86 7.78 7.2 17 28 1018.2 0 18.0 26.0 38.9 101.8 93.2 319.8
03/09 07:00 9.2 86 7.68 7 15 26 1018 0 17.8 25.9 38.5 101.0 92.1 315.7
03/09 06:50 9.1 86 7.63 6.9 17 24 1017.9 0 17.7 25.8 38.4 100.5 91.5 313.7
03/09 06:40 9 87 7.67 7 13 20 1017.8 0 17.8 25.9 38.6 101.1 92.2 316.0
03/09 06:30 8.7 88 7.61 6.8 13 24 1017.6 0 17.7 25.9 38.5 100.8 91.7 314.3
03/09 06:20 8.6 87 7.48 6.6 11 19 1017.7 0 17.4 25.7 38.0 99.5 90.1 308.5
03/09 06:10 8.6 87 7.48 6.6 13 24 1017.6 0 17.4 25.7 38.0 99.5 90.0 308.5
03/09 06:00 8.6 87 7.48 6.6 13 22 1017.5 0 17.4 25.7 38.0 99.5 90.0 308.5
03/09 05:50 8.5 87 7.43 6.5 11 17 1017.5 0 17.3 25.7 37.8 99.0 89.5 306.5
03/09 05:40 8.8 87 7.58 6.8 13 20 1017.5 0 17.6 25.8 38.3 100.3 91.2 312.4
03/09 05:30 8.8 87 7.58 6.8 13 22 1017.2 0 17.6 25.8 38.3 100.3 91.1 312.4
03/09 05:20 8.8 87 7.58 6.8 15 24 1017.3 0 17.6 25.8 38.3 100.3 91.2 312.4
03/09 05:10 8.8 87 7.58 6.8 15 22 1017.3 0 17.6 25.8 38.3 100.3 91.2 312.4
03/09 05:00 8.7 86 7.44 6.5 17 24 1017 0 17.3 25.6 37.7 98.8 89.3 306.0
03/09 04:50 8.9 85 7.45 6.5 15 26 1017 0 17.3 25.6 37.7 98.7 89.2 305.7
03/09 04:40 9.1 84 7.46 6.5 17 28 1016.8 0 17.4 25.5 37.6 98.5 89.1 305.4
03/09 04:30 9.2 83 7.41 6.5 17 24 1016.5 0 17.2 25.4 37.4 97.8 88.3 302.5
03/09 04:20 9.1 84 7.46 6.5 13 20 1016.6 0 17.4 25.5 37.6 98.5 89.1 305.3
03/09 04:10 9.2 83 7.41 6.5 15 24 1016.5 0 17.2 25.4 37.4 97.8 88.3 302.5
03/09 04:00 9 84 7.41 6.4 17 24 1016.3 0 17.3 25.4 37.4 98.1 88.5 303.3
03/09 03:50 8.9 83 7.27 6.2 17 28 1016.4 0 17.0 25.2 36.9 96.7 86.8 297.1
03/09 03:40 9 82 7.23 6.1 17 24 1016.4 0 16.9 25.2 36.7 96.1 86.1 294.8
03/09 03:30 9 81 7.14 5.9 17 26 1016.3 0 16.7 25.0 36.3 95.1 84.9 290.5
03/09 03:20 9.1 80 7.1 5.8 17 28 1016.5 0 16.6 24.9 36.1 94.6 84.3 288.3
03/09 03:10 8.9 82 7.19 6 15 28 1016.6 0 16.8 25.1 36.6 95.8 85.7 293.3
03/09 03:00 8.8 83 7.23 6.1 17 26 1016.5 0 16.9 25.2 36.8 96.4 86.3 295.6
03/09 02:50 8.7 84 7.27 6.2 15 24 1016.8 0 17.0 25.3 37.0 97.0 87.0 297.9
03/09 02:40 8.7 83 7.18 6 17 26 1016.8 0 16.8 25.2 36.7 96.0 85.8 293.7
03/09 02:30 9 81 7.14 5.9 15 24 1016.7 0 16.7 25.0 36.4 95.2 84.9 290.6
03/09 02:20 9 81 7.14 5.9 15 24 1017 0 16.7 25.0 36.4 95.2 85.0 290.7
03/09 02:10 9 81 7.14 5.9 17 26 1017.1 0 16.7 25.0 36.4 95.2 85.0 290.7
03/09 02:00 9.1 81 7.19 6 17 30 1016.9 0 16.8 25.1 36.5 95.6 85.5 292.7
03/09 01:50 9 80 7.06 5.7 17 28 1017.2 0 16.5 24.9 36.1 94.3 83.9 287.0
03/09 01:40 9.1 80 7.1 5.8 15 24 1017.2 0 16.6 24.9 36.2 94.7 84.3 288.5
03/09 01:30 9 80 7.06 5.7 15 28 1017.1 0 16.5 24.9 36.0 94.3 83.9 287.0
03/09 01:20 9 80 7.06 5.7 15 26 1017.2 0 16.5 24.9 36.1 94.3 83.9 287.0
03/09 01:10 9.1 78 6.92 5.5 13 26 1017.2 0 16.2 24.7 35.4 92.7 81.9 280.1
03/09 01:00 9 79 6.97 5.6 15 24 1017 0 16.3 24.8 35.7 93.3 82.7 282.8
03/09 00:50 9 79 6.97 5.6 13 24 1017.2 0 16.3 24.8 35.7 93.4 82.7 282.8
03/09 00:40 8.9 79 6.92 5.5 15 26 1017.2 0 16.2 24.7 35.5 92.9 82.1 280.8
03/09 00:30 8.8 80 6.97 5.5 15 24 1017 0 16.3 24.8 35.8 93.6 82.9 283.5
03/09 00:20 8.7 82 7.09 5.8 13 28 1017.3 0 16.6 25.0 36.3 95.0 84.6 289.5
03/09 00:10 8.3 88 7.42 6.4 13 20 1017.3 0 17.3 25.7 37.9 99.2 89.6 306.7
03/09 00:00 8.5 88 7.52 6.6 11 20 1017.1 0 17.5 25.8 38.2 100.0 90.7 310.7
02/09 23:50 8.6 88 7.56 6.7 13 22 1017.3 0 17.6 25.9 38.3 100.3 91.1 312.2
02/09 23:40 8.5 88 7.52 6.6 13 20 1017.3 0 17.5 25.8 38.2 100.0 90.7 310.7
02/09 23:30 8.5 88 7.52 6.6 15 24 1017.1 0 17.5 25.8 38.2 100.0 90.7 310.7
02/09 23:20 8.5 88 7.52 6.6 13 22 1017.3 0 17.5 25.8 38.2 100.0 90.7 310.7
02/09 23:10 8.7 87 7.53 6.7 13 24 1017.3 0 17.5 25.8 38.1 99.9 90.6 310.4
02/09 23:00 9 86 7.58 6.8 11 19 1017.1 0 17.6 25.8 38.2 100.0 90.9 311.5
02/09 22:50 9.1 85 7.54 6.7 11 24 1017.4 0 17.5 25.7 38.0 99.5 90.3 309.3
02/09 22:40 9.1 85 7.54 6.7 13 24 1017.5 0 17.5 25.7 38.0 99.5 90.3 309.3
02/09 22:30 9.2 85 7.59 6.8 11 20 1017.3 0 17.6 25.7 38.1 99.9 90.8 311.3
02/09 22:20 9.2 82 7.32 6.3 11 26 1017.5 0 17.1 25.3 37.0 96.9 87.2 298.5
02/09 22:10 9.2 81 7.24 6.1 11 20 1017.6 0 16.9 25.2 36.7 96.1 86.1 294.8
02/09 22:00 9.1 82 7.28 6.2 9 17 1017.5 0 17.0 25.3 36.9 96.6 86.8 297.0
02/09 21:50 9.1 81 7.19 6 9 17 1017.5 0 16.8 25.1 36.5 95.7 85.5 292.8
02/09 21:40 8.9 81 7.1 5.8 9 17 1017.4 0 16.6 25.0 36.3 94.9 84.6 289.3
02/09 21:30 8.8 81 7.05 5.7 9 19 1017.1 0 16.5 24.9 36.1 94.5 84.0 287.3
02/09 21:20 8.7 81 7.01 5.6 9 15 1017.3 0 16.4 24.9 36.0 94.2 83.6 285.8
02/09 21:10 8.1 83 6.91 5.4 7 13 1017.2 0 16.2 24.9 35.9 93.8 82.9 283.2
02/09 21:00 8.1 84 6.99 5.6 6 9 1016.9 0 16.4 25.0 36.2 94.6 83.9 286.9
02/09 20:50 7.9 87 7.15 5.9 6 6 1017 0 16.7 25.4 36.9 96.6 86.3 295.3
02/09 20:40 7.7 89 7.22 6 4 7 1016.9 0 16.9 25.5 37.3 97.7 87.5 299.4
02/09 20:30 7.5 88 7.05 5.6 0 0 1016.6 0 16.5 25.3 36.7 96.0 85.4 291.9
02/09 20:20 7.9 87 7.15 5.9 0 0 1016.8 0 16.7 25.4 36.9 96.6 86.3 295.2
02/09 20:10 8.1 85 7.08 5.7 0 0 1016.7 0 16.6 25.2 36.5 95.6 85.1 291.2
02/09 20:00 8.5 84 7.17 6 0 0 1016.3 0 16.8 25.2 36.7 96.1 85.9 293.8

Last Refresh: 03-Sep-2026 12:40:18

Bureau of Meteorology